Time;durP1;ratioP1;P1;durP2;ratioP2;P2;SDS_P1;SDS_P2;PMS_P1;PMS_P2;Temp;Humidity;BMP_temperature;BMP_pressure;BME280_temperature;BME280_humidity;BME280_pressure;Samples;Min_cycle;Max_cycle;Signal;HPM_P1;HPM_P2
2022/03/04 00:01:53;;;;;;;8.67;3.13;;;;;;;;;;5055706;28;20795;-64
2022/03/04 00:04:20;;;;;;;7.87;3.07;;;;;;;;;;5047622;28;20461;-65
2022/03/04 00:06:47;;;;;;;5.13;2.10;;;;;;;;;;5061403;28;20440;-65
2022/03/04 00:09:13;;;;;;;5.30;2.03;;;;;;;;;;5043657;28;20770;-64
2022/03/04 00:11:40;;;;;;;7.80;2.20;;;;;;;;;;5029707;28;20454;-64
2022/03/04 00:14:08;;;;;;;8.57;2.40;;;;;;;;;;5032263;28;20498;-64
2022/03/04 00:16:34;;;;;;;10.27;2.40;;;;;;;;;;5031709;28;20437;-65
2022/03/04 00:19:08;;;;;;;5.70;2.43;;;;;;;;;;5031922;28;20495;-64
2022/03/04 00:21:38;;;;;;;7.37;2.40;;;;;;;;;;5035628;28;21110;-65
2022/03/04 00:24:06;;;;;;;11.20;2.90;;;;;;;;;;5062591;28;20433;-65
2022/03/04 00:26:32;;;;;;;5.93;2.20;;;;;;;;;;5051734;28;20441;-65
2022/03/04 00:28:59;;;;;;;7.70;2.30;;;;;;;;;;5050539;28;20441;-64
2022/03/04 00:31:25;;;;;;;10.63;2.10;;;;;;;;;;5050026;28;20835;-64
2022/03/04 00:33:52;;;;;;;5.77;1.53;;;;;;;;;;5051560;28;20469;-64
2022/03/04 00:36:22;;;;;;;8.30;2.10;;;;;;;;;;5050245;28;20518;-64
2022/03/04 00:38:49;;;;;;;9.97;1.80;;;;;;;;;;5051582;28;20437;-64
2022/03/04 00:41:17;;;;;;;4.77;1.57;;;;;;;;;;5050441;28;20426;-65
2022/03/04 00:43:44;;;;;;;6.57;2.10;;;;;;;;;;5051308;28;21189;-64
2022/03/04 00:46:11;;;;;;;6.27;1.60;;;;;;;;;;5050662;28;20431;-65
2022/03/04 00:48:38;;;;;;;3.73;1.50;;;;;;;;;;5051449;28;20460;-64
2022/03/04 00:51:05;;;;;;;2.70;1.53;;;;;;;;;;5051111;28;20487;-65
2022/03/04 00:53:31;;;;;;;6.73;2.00;;;;;;;;;;5051596;28;20512;-65
2022/03/04 00:55:58;;;;;;;6.90;1.90;;;;;;;;;;5051045;28;20903;-65
2022/03/04 00:58:24;;;;;;;6.73;2.07;;;;;;;;;;5051126;28;20436;-65
2022/03/04 01:00:51;;;;;;;7.40;1.90;;;;;;;;;;5047499;28;20999;-65
2022/03/04 01:03:18;;;;;;;5.67;2.17;;;;;;;;;;5031323;28;20930;-65
2022/03/04 01:37:59;;;;;;;5.70;1.60;;;;;;;;;;5030065;28;20415;-65
2022/03/04 01:40:26;;;;;;;7.33;1.77;;;;;;;;;;5030361;28;20449;-65
2022/03/04 01:42:53;;;;;;;10.40;1.50;;;;;;;;;;5030423;28;20470;-65
2022/03/04 01:45:20;;;;;;;5.63;1.50;;;;;;;;;;5030181;28;20941;-65
2022/03/04 01:47:47;;;;;;;7.27;1.60;;;;;;;;;;5030161;28;20773;-65
2022/03/04 01:50:13;;;;;;;5.00;1.33;;;;;;;;;;5030451;28;20496;-65
2022/03/04 01:52:41;;;;;;;6.03;1.43;;;;;;;;;;5030162;28;20434;-65
2022/03/04 01:55:08;;;;;;;7.87;1.43;;;;;;;;;;5029978;28;20485;-65
2022/03/04 01:57:35;;;;;;;6.80;1.40;;;;;;;;;;5030107;28;20442;-65
2022/03/04 02:00:03;;;;;;;8.80;1.53;;;;;;;;;;5029972;28;20429;-65
2022/03/04 02:02:37;;;;;;;7.07;1.70;;;;;;;;;;5029884;28;20420;-65
2022/03/04 02:05:04;;;;;;;6.13;1.10;;;;;;;;;;5041258;28;20466;-65
2022/03/04 02:07:31;;;;;;;7.60;1.47;;;;;;;;;;5029918;28;20484;-65
2022/03/04 02:09:57;;;;;;;6.40;1.30;;;;;;;;;;5030078;28;20958;-65
2022/03/04 02:12:25;;;;;;;6.67;1.43;;;;;;;;;;5029788;28;20436;-65
2022/03/04 02:14:51;;;;;;;5.27;1.43;;;;;;;;;;5029753;28;20466;-65
2022/03/04 02:17:18;;;;;;;8.77;1.10;;;;;;;;;;5029953;28;20438;-65
2022/03/04 02:19:44;;;;;;;5.03;1.53;;;;;;;;;;5029896;28;20852;-65
2022/03/04 02:22:11;;;;;;;6.33;1.40;;;;;;;;;;5029534;28;20449;-65
2022/03/04 02:24:38;;;;;;;5.60;1.60;;;;;;;;;;5029606;28;20929;-64
2022/03/04 02:27:05;;;;;;;6.80;1.43;;;;;;;;;;5044468;28;20446;-65
2022/03/04 02:29:31;;;;;;;5.23;1.37;;;;;;;;;;5029794;28;20464;-65
2022/03/04 02:31:58;;;;;;;8.47;1.60;;;;;;;;;;5029429;28;20430;-65
2022/03/04 02:34:25;;;;;;;4.83;1.20;;;;;;;;;;5029210;28;20442;-65
2022/03/04 02:36:52;;;;;;;6.13;1.20;;;;;;;;;;5029325;28;20527;-65
2022/03/04 02:39:18;;;;;;;5.10;1.10;;;;;;;;;;5029460;28;20435;-65
2022/03/04 02:41:45;;;;;;;4.57;1.10;;;;;;;;;;5056303;28;20424;-65
2022/03/04 02:44:12;;;;;;;9.30;1.33;;;;;;;;;;5048828;28;20522;-65
2022/03/04 02:46:39;;;;;;;4.03;1.37;;;;;;;;;;5048999;28;21382;-65
2022/03/04 02:49:06;;;;;;;5.57;1.30;;;;;;;;;;5048916;28;20495;-65
2022/03/04 02:51:33;;;;;;;7.37;1.30;;;;;;;;;;5049128;28;20488;-65
2022/03/04 02:54:00;;;;;;;5.77;1.20;;;;;;;;;;5048806;28;20787;-66
2022/03/04 02:56:27;;;;;;;6.20;1.20;;;;;;;;;;5048081;28;20468;-65
2022/03/04 02:58:53;;;;;;;5.23;1.20;;;;;;;;;;5048746;28;20438;-66
2022/03/04 03:01:20;;;;;;;6.93;1.37;;;;;;;;;;5048670;28;20784;-65
2022/03/04 03:03:47;;;;;;;6.37;1.13;;;;;;;;;;5043140;28;20448;-65
2022/03/04 03:06:13;;;;;;;5.13;1.03;;;;;;;;;;5029029;28;20965;-65
2022/03/04 03:08:40;;;;;;;7.93;1.37;;;;;;;;;;5028471;28;20798;-65
2022/03/04 03:11:07;;;;;;;5.40;1.10;;;;;;;;;;5044375;28;20484;-65
2022/03/04 03:13:34;;;;;;;4.57;1.30;;;;;;;;;;5028674;28;20432;-65
2022/03/04 03:16:01;;;;;;;5.10;0.83;;;;;;;;;;5028359;28;20504;-65
2022/03/04 03:18:28;;;;;;;4.60;1.10;;;;;;;;;;5028650;28;20543;-65
2022/03/04 03:20:55;;;;;;;5.70;0.97;;;;;;;;;;5028645;28;20441;-66
2022/03/04 03:23:21;;;;;;;7.63;1.30;;;;;;;;;;5044052;28;20844;-65
2022/03/04 03:25:48;;;;;;;6.27;1.30;;;;;;;;;;5028775;28;20429;-64
2022/03/04 03:28:14;;;;;;;2.53;0.93;;;;;;;;;;5028400;28;20438;-64
2022/03/04 03:30:41;;;;;;;6.50;1.70;;;;;;;;;;5027373;28;20832;-64
2022/03/04 03:33:08;;;;;;;6.67;1.07;;;;;;;;;;5028443;28;20241;-65
2022/03/04 03:35:34;;;;;;;5.30;1.30;;;;;;;;;;5028874;28;20485;-64
2022/03/04 03:38:01;;;;;;;4.97;1.10;;;;;;;;;;5028248;28;20793;-65
2022/03/04 03:40:27;;;;;;;6.40;1.33;;;;;;;;;;5028569;28;20430;-64
2022/03/04 03:42:57;;;;;;;6.23;1.20;;;;;;;;;;5028318;28;20435;-64
2022/03/04 03:45:23;;;;;;;4.67;1.20;;;;;;;;;;5028119;28;20468;-64
2022/03/04 03:47:50;;;;;;;3.90;1.00;;;;;;;;;;5032284;28;20510;-64
2022/03/04 03:50:17;;;;;;;2.73;1.00;;;;;;;;;;5033094;28;20778;-64
2022/03/04 03:52:44;;;;;;;4.77;1.40;;;;;;;;;;5060609;28;20454;-64
2022/03/04 03:55:10;;;;;;;4.63;1.00;;;;;;;;;;5032214;28;20526;-65
2022/03/04 03:57:37;;;;;;;1.77;1.07;;;;;;;;;;5031295;28;20442;-64
2022/03/04 04:00:04;;;;;;;5.03;1.50;;;;;;;;;;5031839;28;20474;-65
2022/03/04 04:02:37;;;;;;;4.63;1.27;;;;;;;;;;5032341;28;20434;-64
2022/03/04 04:05:05;;;;;;;2.27;0.73;;;;;;;;;;5047334;28;20828;-64
2022/03/04 04:07:31;;;;;;;5.73;1.10;;;;;;;;;;5035258;28;20521;-64
2022/03/04 04:09:58;;;;;;;6.07;1.30;;;;;;;;;;5032017;28;20863;-64
2022/03/04 04:12:24;;;;;;;7.17;1.40;;;;;;;;;;5031889;28;20440;-64
2022/03/04 04:14:51;;;;;;;1.67;0.90;;;;;;;;;;5031739;28;20426;-65
2022/03/04 04:17:18;;;;;;;4.50;1.30;;;;;;;;;;5032644;28;20466;-65
2022/03/04 04:19:44;;;;;;;8.10;1.00;;;;;;;;;;5031891;28;20516;-64
2022/03/04 04:22:11;;;;;;;4.23;0.90;;;;;;;;;;5031096;28;20466;-64
2022/03/04 04:24:38;;;;;;;3.13;1.13;;;;;;;;;;5030545;28;20446;-64
2022/03/04 04:27:04;;;;;;;4.83;1.10;;;;;;;;;;5031599;28;20798;-64
2022/03/04 04:29:31;;;;;;;4.53;0.90;;;;;;;;;;5033226;28;20897;-65
2022/03/04 04:31:57;;;;;;;5.10;1.00;;;;;;;;;;5043115;28;20500;-65
2022/03/04 04:34:24;;;;;;;7.03;1.07;;;;;;;;;;5045285;28;20433;-67
2022/03/04 04:36:51;;;;;;;2.73;1.10;;;;;;;;;;5046308;28;20471;-66
2022/03/04 04:39:18;;;;;;;6.67;1.20;;;;;;;;;;5046228;28;20435;-64
2022/03/04 04:41:44;;;;;;;3.60;1.10;;;;;;;;;;5043425;28;20434;-64
2022/03/04 04:44:11;;;;;;;4.57;1.00;;;;;;;;;;5045594;28;20448;-65
2022/03/04 04:46:38;;;;;;;3.57;1.10;;;;;;;;;;5046115;28;20425;-65
2022/03/04 04:49:04;;;;;;;4.57;1.00;;;;;;;;;;5044860;28;20458;-66
2022/03/04 04:51:31;;;;;;;4.23;0.83;;;;;;;;;;5044659;28;20432;-67
2022/03/04 04:53:58;;;;;;;2.23;0.70;;;;;;;;;;5045393;28;20474;-67
2022/03/04 04:56:24;;;;;;;3.10;0.80;;;;;;;;;;5045789;28;20472;-65
2022/03/04 04:58:51;;;;;;;3.97;0.90;;;;;;;;;;5042027;28;20444;-66
2022/03/04 05:01:18;;;;;;;5.80;1.13;;;;;;;;;;5045333;28;20429;-67
2022/03/04 05:03:45;;;;;;;3.10;0.80;;;;;;;;;;5042981;28;20433;-67
2022/03/04 05:06:12;;;;;;;3.37;0.77;;;;;;;;;;5045209;28;20918;-66
2022/03/04 05:08:39;;;;;;;2.00;0.90;;;;;;;;;;5045022;28;20441;-65
2022/03/04 05:11:06;;;;;;;4.10;0.73;;;;;;;;;;5045800;28;20448;-64
2022/03/04 05:13:32;;;;;;;3.20;0.80;;;;;;;;;;5045925;28;20434;-65
2022/03/04 05:15:59;;;;;;;3.63;0.90;;;;;;;;;;5041183;28;21265;-64
2022/03/04 05:18:26;;;;;;;3.30;0.97;;;;;;;;;;5045785;28;20473;-65
2022/03/04 05:20:53;;;;;;;5.53;1.20;;;;;;;;;;5044142;28;20445;-66
2022/03/04 05:26:05;;;;;;;3.87;1.00;;;;;;;;;;5044223;28;20989;-65
2022/03/04 05:28:31;;;;;;;4.60;1.17;;;;;;;;;;5045388;28;20464;-66
2022/03/04 05:30:59;;;;;;;5.53;1.20;;;;;;;;;;5043685;28;20445;-67
2022/03/04 05:33:25;;;;;;;4.47;1.20;;;;;;;;;;5043657;28;20441;-67
2022/03/04 05:35:52;;;;;;;5.53;1.20;;;;;;;;;;5044488;28;20493;-67
2022/03/04 05:38:19;;;;;;;4.87;1.40;;;;;;;;;;5045132;28;20443;-65
2022/03/04 05:40:46;;;;;;;5.90;1.40;;;;;;;;;;5044454;28;21192;-65
2022/03/04 05:43:13;;;;;;;3.63;1.10;;;;;;;;;;5045155;28;20441;-66
2022/03/04 05:45:39;;;;;;;5.60;1.07;;;;;;;;;;5044684;28;20440;-66
2022/03/04 05:48:07;;;;;;;4.10;1.30;;;;;;;;;;5042209;28;20430;-67
2022/03/04 05:50:34;;;;;;;1.43;0.80;;;;;;;;;;5046123;28;20444;-64
2022/03/04 05:53:00;;;;;;;5.93;1.10;;;;;;;;;;5049905;28;20645;-64
2022/03/04 05:55:27;;;;;;;3.87;1.30;;;;;;;;;;5049838;28;20528;-64
2022/03/04 05:57:53;;;;;;;4.17;0.97;;;;;;;;;;5049780;28;20499;-65
2022/03/04 06:00:21;;;;;;;4.13;1.20;;;;;;;;;;5042663;28;21113;-66
2022/03/04 06:02:47;;;;;;;6.57;1.57;;;;;;;;;;5034551;28;20484;-65
2022/03/04 06:05:14;;;;;;;4.77;1.40;;;;;;;;;;5030144;28;20474;-64
2022/03/04 06:07:41;;;;;;;3.63;1.00;;;;;;;;;;5036331;28;20469;-65
2022/03/04 06:10:08;;;;;;;4.20;0.80;;;;;;;;;;5033943;28;20449;-65
2022/03/04 06:12:34;;;;;;;2.17;0.87;;;;;;;;;;5050186;28;20473;-65
2022/03/04 06:15:01;;;;;;;4.07;1.00;;;;;;;;;;5069328;28;21152;-65
2022/03/04 06:17:28;;;;;;;4.30;0.83;;;;;;;;;;5050232;28;20465;-65
2022/03/04 06:19:55;;;;;;;3.67;0.97;;;;;;;;;;5049585;28;20533;-65
2022/03/04 06:22:22;;;;;;;6.73;1.07;;;;;;;;;;5049452;28;20488;-64
2022/03/04 06:24:48;;;;;;;4.77;1.20;;;;;;;;;;5049416;28;20484;-65
2022/03/04 06:27:15;;;;;;;6.33;1.00;;;;;;;;;;5041910;28;20427;-65
2022/03/04 06:29:42;;;;;;;6.10;1.63;;;;;;;;;;5025602;28;21337;-67
2022/03/04 06:32:09;;;;;;;3.97;1.27;;;;;;;;;;5041685;28;20971;-66
2022/03/04 06:34:37;;;;;;;2.73;0.93;;;;;;;;;;5041703;28;20437;-65
2022/03/04 06:37:03;;;;;;;3.77;1.20;;;;;;;;;;5039309;28;20475;-65
2022/03/04 06:39:30;;;;;;;3.53;0.90;;;;;;;;;;5048419;28;20789;-65
2022/03/04 06:41:57;;;;;;;4.07;1.07;;;;;;;;;;5033647;28;20531;-63
2022/03/04 06:44:25;;;;;;;5.17;1.27;;;;;;;;;;5047629;28;20471;-65
2022/03/04 06:46:52;;;;;;;2.53;0.97;;;;;;;;;;5049146;28;20543;-65
2022/03/04 06:49:19;;;;;;;3.23;1.20;;;;;;;;;;5049069;28;20437;-65
2022/03/04 06:51:46;;;;;;;3.63;1.23;;;;;;;;;;5049029;28;20481;-65
2022/03/04 06:54:13;;;;;;;3.97;1.20;;;;;;;;;;5048942;28;20431;-65
2022/03/04 06:56:39;;;;;;;3.43;1.00;;;;;;;;;;5048776;28;20456;-65
2022/03/04 06:59:06;;;;;;;3.47;1.07;;;;;;;;;;5043342;28;20472;-66
2022/03/04 07:01:33;;;;;;;4.57;1.37;;;;;;;;;;5039717;28;20431;-65
2022/03/04 07:04:00;;;;;;;2.90;1.30;;;;;;;;;;5040027;28;20477;-64
2022/03/04 07:06:27;;;;;;;4.07;1.40;;;;;;;;;;5041612;28;20504;-64
2022/03/04 07:08:53;;;;;;;5.33;1.03;;;;;;;;;;5040288;28;20425;-65
2022/03/04 07:11:24;;;;;;;5.40;1.10;;;;;;;;;;5042963;28;20445;-65
2022/03/04 07:13:50;;;;;;;3.63;1.00;;;;;;;;;;5042353;28;20441;-66
2022/03/04 07:16:18;;;;;;;3.90;1.10;;;;;;;;;;5042519;28;20461;-65
2022/03/04 07:18:44;;;;;;;4.13;1.60;;;;;;;;;;5041673;28;20970;-67
2022/03/04 07:21:11;;;;;;;5.40;2.10;;;;;;;;;;5039914;28;20455;-65
2022/03/04 07:23:38;;;;;;;3.47;1.50;;;;;;;;;;5043222;28;20481;-65
2022/03/04 07:26:08;;;;;;;5.97;1.87;;;;;;;;;;5041319;28;20428;-66
2022/03/04 07:28:35;;;;;;;4.90;1.30;;;;;;;;;;5039641;28;20449;-65
2022/03/04 07:31:02;;;;;;;4.00;1.40;;;;;;;;;;5039550;28;20556;-65
2022/03/04 07:33:29;;;;;;;5.43;1.20;;;;;;;;;;5039212;28;20435;-66
2022/03/04 07:35:56;;;;;;;3.40;0.93;;;;;;;;;;5040059;28;20486;-65
2022/03/04 07:38:23;;;;;;;2.20;0.93;;;;;;;;;;5041786;28;20525;-67
2022/03/04 07:40:50;;;;;;;6.60;1.27;;;;;;;;;;5041029;28;20433;-66
2022/03/04 07:43:16;;;;;;;2.17;0.73;;;;;;;;;;5042034;28;20544;-67
2022/03/04 07:45:43;;;;;;;5.57;1.03;;;;;;;;;;5042511;28;20515;-66
2022/03/04 07:48:10;;;;;;;3.00;0.83;;;;;;;;;;5042436;28;20436;-67
2022/03/04 07:50:37;;;;;;;2.10;0.90;;;;;;;;;;5042857;28;20462;-67
2022/03/04 07:53:04;;;;;;;5.03;1.13;;;;;;;;;;5042665;28;20437;-66
2022/03/04 07:55:30;;;;;;;4.40;1.13;;;;;;;;;;5039870;28;20805;-68
2022/03/04 07:57:59;;;;;;;4.03;1.73;;;;;;;;;;5041990;28;20591;-67
2022/03/04 08:00:26;;;;;;;8.73;3.20;;;;;;;;;;5024547;28;20479;-68
2022/03/04 08:02:53;;;;;;;4.63;2.10;;;;;;;;;;5042880;28;20459;-65
2022/03/04 08:05:21;;;;;;;5.73;2.57;;;;;;;;;;5043276;28;20552;-66
2022/03/04 08:07:47;;;;;;;3.13;1.33;;;;;;;;;;5044011;28;20483;-65
2022/03/04 08:10:15;;;;;;;6.57;1.93;;;;;;;;;;5041979;28;20443;-66
2022/03/04 08:12:42;;;;;;;4.87;1.70;;;;;;;;;;5041341;28;20992;-67
2022/03/04 08:15:10;;;;;;;5.07;2.13;;;;;;;;;;5041788;28;20433;-65
2022/03/04 08:17:37;;;;;;;5.77;2.47;;;;;;;;;;5042870;28;20487;-65
2022/03/04 08:20:04;;;;;;;2.77;1.30;;;;;;;;;;5042385;28;20425;-68
2022/03/04 08:22:31;;;;;;;6.90;1.50;;;;;;;;;;5040975;28;20929;-69
2022/03/04 08:24:58;;;;;;;3.00;2.00;;;;;;;;;;5042257;28;20442;-65
2022/03/04 08:27:25;;;;;;;4.43;1.73;;;;;;;;;;5042388;28;20437;-65
2022/03/04 08:29:52;;;;;;;2.73;1.30;;;;;;;;;;5041663;28;20439;-68
2022/03/04 08:32:23;;;;;;;6.53;1.90;;;;;;;;;;5042116;28;20448;-68
2022/03/04 08:34:56;;;;;;;5.50;1.83;;;;;;;;;;5044910;28;20459;-65
2022/03/04 08:37:23;;;;;;;6.03;2.07;;;;;;;;;;5044948;28;20812;-65
2022/03/04 08:39:50;;;;;;;3.50;1.40;;;;;;;;;;5045390;28;21144;-65
2022/03/04 08:42:16;;;;;;;2.77;1.30;;;;;;;;;;5045841;28;20437;-65
2022/03/04 08:44:43;;;;;;;4.00;1.23;;;;;;;;;;5045262;28;20840;-64
2022/03/04 08:47:10;;;;;;;3.97;1.20;;;;;;;;;;5044783;28;20441;-66
2022/03/04 08:49:37;;;;;;;3.53;1.60;;;;;;;;;;5044168;28;20436;-65
2022/03/04 08:52:04;;;;;;;4.70;1.30;;;;;;;;;;5045278;28;20437;-65
2022/03/04 08:54:32;;;;;;;2.80;1.00;;;;;;;;;;5045260;28;20437;-65
2022/03/04 08:56:59;;;;;;;3.50;1.03;;;;;;;;;;5044946;28;20476;-65
2022/03/04 08:59:26;;;;;;;3.27;1.00;;;;;;;;;;5044948;28;20492;-66
2022/03/04 09:01:53;;;;;;;3.70;1.70;;;;;;;;;;5045099;28;20429;-65
2022/03/04 09:04:21;;;;;;;1.97;1.00;;;;;;;;;;5045477;28;21041;-67
2022/03/04 09:06:48;;;;;;;4.67;0.90;;;;;;;;;;5043663;28;20448;-65
2022/03/04 09:09:14;;;;;;;4.67;1.27;;;;;;;;;;5044222;28;20434;-66
2022/03/04 09:11:42;;;;;;;1.70;1.00;;;;;;;;;;5043132;28;20461;-68
2022/03/04 09:14:09;;;;;;;2.10;1.00;;;;;;;;;;5045254;28;20437;-65
2022/03/04 09:16:36;;;;;;;3.10;1.20;;;;;;;;;;5044280;28;21173;-65
2022/03/04 09:19:03;;;;;;;2.93;1.00;;;;;;;;;;5044221;28;20438;-65
2022/03/04 09:21:29;;;;;;;4.53;1.50;;;;;;;;;;5044490;28;20480;-66
2022/03/04 09:23:56;;;;;;;3.70;1.20;;;;;;;;;;5043419;28;21191;-66
2022/03/04 09:26:23;;;;;;;3.37;1.20;;;;;;;;;;5044541;28;20448;-68
2022/03/04 09:28:50;;;;;;;2.60;1.00;;;;;;;;;;5042857;28;20436;-66
2022/03/04 09:31:17;;;;;;;2.60;1.00;;;;;;;;;;5043126;28;20439;-67
2022/03/04 09:33:44;;;;;;;5.10;1.60;;;;;;;;;;5040203;28;20533;-66
2022/03/04 09:36:14;;;;;;;2.33;1.27;;;;;;;;;;5047960;28;20464;-64
2022/03/04 09:38:41;;;;;;;3.13;1.00;;;;;;;;;;5039643;28;20503;-68
2022/03/04 09:41:08;;;;;;;4.17;1.40;;;;;;;;;;5044321;28;20465;-67
2022/03/04 09:43:37;;;;;;;3.23;1.60;;;;;;;;;;5044783;28;20437;-67
2022/03/04 09:46:04;;;;;;;2.73;1.33;;;;;;;;;;5041769;28;20441;-64
2022/03/04 09:48:32;;;;;;;5.23;1.80;;;;;;;;;;5042862;28;20445;-66
2022/03/04 09:50:59;;;;;;;5.83;1.50;;;;;;;;;;5043117;28;21347;-65
2022/03/04 09:53:27;;;;;;;3.63;1.53;;;;;;;;;;5043738;28;20536;-66
2022/03/04 09:55:53;;;;;;;2.87;1.63;;;;;;;;;;5042768;28;20429;-65
2022/03/04 09:58:20;;;;;;;2.73;1.53;;;;;;;;;;5042947;28;20484;-67
2022/03/04 10:00:47;;;;;;;4.37;2.00;;;;;;;;;;5043457;28;20943;-66
2022/03/04 10:03:21;;;;;;;3.70;2.00;;;;;;;;;;5044137;28;20433;-65
2022/03/04 10:05:51;;;;;;;4.97;1.87;;;;;;;;;;5042185;28;20567;-66
2022/03/04 10:08:19;;;;;;;3.23;1.63;;;;;;;;;;5042776;28;20554;-66
2022/03/04 10:10:49;;;;;;;4.60;2.10;;;;;;;;;;5043074;28;20922;-66
2022/03/04 10:13:16;;;;;;;5.23;2.43;;;;;;;;;;5041606;28;20531;-67
2022/03/04 10:15:54;;;;;;;4.33;1.43;;;;;;;;;;5042912;28;20467;-66
2022/03/04 10:18:25;;;;;;;3.50;1.50;;;;;;;;;;5042003;28;21226;-64
2022/03/04 10:20:51;;;;;;;3.23;1.50;;;;;;;;;;5044034;28;20447;-66
2022/03/04 10:23:19;;;;;;;4.03;1.93;;;;;;;;;;5044485;28;21029;-66
2022/03/04 10:25:49;;;;;;;4.87;2.00;;;;;;;;;;5042277;28;20477;-65
2022/03/04 10:28:16;;;;;;;9.33;4.40;;;;;;;;;;5025499;28;20990;-66
2022/03/04 10:30:44;;;;;;;11.63;7.83;;;;;;;;;;5042682;28;20425;-65
2022/03/04 10:33:13;;;;;;;4.07;2.30;;;;;;;;;;5043869;28;20464;-66
2022/03/04 10:35:40;;;;;;;3.50;1.90;;;;;;;;;;5043688;28;20492;-66
2022/03/04 10:38:16;;;;;;;6.73;2.00;;;;;;;;;;5042354;28;21108;-67
2022/03/04 10:40:43;;;;;;;3.73;1.73;;;;;;;;;;5043206;28;20429;-64
2022/03/04 10:43:10;;;;;;;3.30;1.80;;;;;;;;;;5042548;28;20898;-64
2022/03/04 10:45:42;;;;;;;6.00;2.37;;;;;;;;;;5043516;28;20792;-64
2022/03/04 10:48:09;;;;;;;5.70;2.50;;;;;;;;;;5041465;28;20469;-66
2022/03/04 10:50:37;;;;;;;5.53;2.53;;;;;;;;;;5042074;28;20436;-66
2022/03/04 10:53:03;;;;;;;5.97;2.37;;;;;;;;;;5042842;28;21155;-65
2022/03/04 10:55:36;;;;;;;4.77;3.00;;;;;;;;;;5042974;28;20676;-64
2022/03/04 10:58:04;;;;;;;4.37;2.07;;;;;;;;;;5041728;28;20503;-66
2022/03/04 11:00:35;;;;;;;7.20;3.20;;;;;;;;;;5057795;28;20486;-66
2022/03/04 11:03:03;;;;;;;2.73;1.90;;;;;;;;;;5042604;28;21053;-65
2022/03/04 11:05:30;;;;;;;2.60;1.53;;;;;;;;;;5041841;28;20500;-65
2022/03/04 11:07:57;;;;;;;2.60;1.60;;;;;;;;;;5042631;28;20433;-66
2022/03/04 11:10:24;;;;;;;3.00;1.40;;;;;;;;;;5042037;28;20429;-66
2022/03/04 11:12:53;;;;;;;2.10;1.60;;;;;;;;;;5040217;28;20476;-65
2022/03/04 11:15:20;;;;;;;3.33;1.57;;;;;;;;;;5042615;28;20429;-65
2022/03/04 11:17:47;;;;;;;3.00;1.43;;;;;;;;;;5041619;28;20483;-66
2022/03/04 11:20:15;;;;;;;3.43;1.10;;;;;;;;;;5041279;28;20441;-64
2022/03/04 11:22:43;;;;;;;8.53;4.00;;;;;;;;;;5042387;28;21387;-63
2022/03/04 11:25:10;;;;;;;6.40;2.53;;;;;;;;;;5025121;28;20438;-63
2022/03/04 11:27:39;;;;;;;3.33;1.33;;;;;;;;;;5042827;28;20186;-63
2022/03/04 11:30:06;;;;;;;3.07;1.17;;;;;;;;;;5041566;28;20277;-65
2022/03/04 11:32:33;;;;;;;1.50;0.90;;;;;;;;;;5041396;28;20199;-65
2022/03/04 11:34:59;;;;;;;3.73;1.10;;;;;;;;;;5040747;28;20304;-64
2022/03/04 11:37:26;;;;;;;2.47;1.30;;;;;;;;;;5039649;28;20214;-66
2022/03/04 11:40:06;;;;;;;3.33;1.20;;;;;;;;;;5023365;28;20388;-64
2022/03/04 11:42:35;;;;;;;2.83;1.10;;;;;;;;;;5042141;28;20194;-65
2022/03/04 11:45:02;;;;;;;4.63;2.67;;;;;;;;;;5040645;28;20202;-63
2022/03/04 11:47:29;;;;;;;2.87;1.60;;;;;;;;;;5042633;28;20205;-64
2022/03/04 11:49:56;;;;;;;1.37;0.70;;;;;;;;;;5042121;28;20191;-64
2022/03/04 11:52:26;;;;;;;2.00;0.90;;;;;;;;;;5039254;28;21000;-64
2022/03/04 11:54:56;;;;;;;1.87;0.70;;;;;;;;;;5042187;28;20195;-64
2022/03/04 11:57:26;;;;;;;2.53;1.07;;;;;;;;;;5041575;28;20499;-64
2022/03/04 12:00:00;;;;;;;2.83;1.10;;;;;;;;;;5041294;28;20441;-63
2022/03/04 12:02:43;;;;;;;2.40;0.90;;;;;;;;;;5042354;28;20424;-65
2022/03/04 12:05:22;;;;;;;2.97;1.10;;;;;;;;;;5042056;28;20489;-66
2022/03/04 12:07:50;;;;;;;2.13;1.00;;;;;;;;;;5044592;28;20471;-66
2022/03/04 12:10:24;;;;;;;2.53;1.17;;;;;;;;;;5046085;28;20191;-65
2022/03/04 12:13:00;;;;;;;2.40;0.90;;;;;;;;;;5046691;28;20433;-64
2022/03/04 12:15:36;;;;;;;2.20;0.70;;;;;;;;;;5046164;28;20271;-63
2022/03/04 12:18:05;;;;;;;2.00;0.60;;;;;;;;;;5045534;28;20252;-66
2022/03/04 12:20:41;;;;;;;1.90;0.90;;;;;;;;;;5044829;28;20191;-65
2022/03/04 12:23:15;;;;;;;2.47;0.80;;;;;;;;;;5046941;28;20226;-67
2022/03/04 12:26:02;;;;;;;1.20;0.53;;;;;;;;;;5044602;28;20321;-65
2022/03/04 12:28:33;;;;;;;3.80;0.60;;;;;;;;;;5033530;28;20261;-66
2022/03/04 12:31:00;;;;;;;3.73;0.80;;;;;;;;;;5046089;28;20195;-65
2022/03/04 12:33:28;;;;;;;1.80;0.90;;;;;;;;;;5042464;28;20707;-66
2022/03/04 12:35:57;;;;;;;2.90;1.40;;;;;;;;;;5045128;28;20187;-67
2022/03/04 12:38:24;;;;;;;2.40;0.80;;;;;;;;;;5042362;28;20887;-66
2022/03/04 12:40:54;;;;;;;2.30;0.80;;;;;;;;;;5046052;28;20214;-65
2022/03/04 12:43:22;;;;;;;2.20;0.40;;;;;;;;;;5045939;28;20256;-66
2022/03/04 12:45:49;;;;;;;0.80;0.50;;;;;;;;;;5046059;28;20194;-65
2022/03/04 12:48:16;;;;;;;1.90;0.90;;;;;;;;;;5043544;28;20203;-65
2022/03/04 12:50:43;;;;;;;1.00;0.50;;;;;;;;;;5044928;28;20430;-64
2022/03/04 12:53:23;;;;;;;0.60;0.30;;;;;;;;;;5045762;28;20940;-64
2022/03/04 12:55:55;;;;;;;1.17;0.57;;;;;;;;;;5044000;28;20276;-65
2022/03/04 12:58:38;;;;;;;0.93;0.50;;;;;;;;;;5044013;28;20215;-64
2022/03/04 13:01:06;;;;;;;2.00;0.60;;;;;;;;;;5042899;28;20425;-66
2022/03/04 13:03:34;;;;;;;1.93;0.80;;;;;;;;;;5044702;28;20230;-64
2022/03/04 13:06:00;;;;;;;1.43;0.70;;;;;;;;;;5041533;28;20440;-64
2022/03/04 13:08:27;;;;;;;1.17;0.50;;;;;;;;;;5043259;28;20436;-65
2022/03/04 13:10:54;;;;;;;18.60;12.73;;;;;;;;;;5045189;28;20218;-65
2022/03/04 13:13:22;;;;;;;3.13;0.90;;;;;;;;;;5045051;28;20984;-67
2022/03/04 13:15:52;;;;;;;1.07;0.70;;;;;;;;;;5042044;28;20199;-66
2022/03/04 13:18:22;;;;;;;2.57;1.20;;;;;;;;;;5043184;28;20488;-65
2022/03/04 13:21:02;;;;;;;2.97;1.20;;;;;;;;;;5041783;28;20437;-65
2022/03/04 13:23:28;;;;;;;7.23;2.50;;;;;;;;;;5043414;28;20437;-65
2022/03/04 13:26:03;;;;;;;12.43;5.23;;;;;;;;;;5043785;28;20520;-64
2022/03/04 13:28:48;;;;;;;12.23;4.87;;;;;;;;;;5042661;28;20444;-65
2022/03/04 13:31:24;;;;;;;1.37;0.50;;;;;;;;;;5044395;28;20441;-64
2022/03/04 13:33:55;;;;;;;8.47;4.23;;;;;;;;;;5044511;28;20925;-64
2022/03/04 13:36:44;;;;;;;3.00;1.33;;;;;;;;;;5044464;28;20455;-66
2022/03/04 13:39:12;;;;;;;1.50;0.90;;;;;;;;;;5043749;28;20560;-65
2022/03/04 13:41:39;;;;;;;1.80;0.90;;;;;;;;;;5045126;28;20493;-65
2022/03/04 13:44:07;;;;;;;1.07;0.80;;;;;;;;;;5043627;28;20491;-63
2022/03/04 13:46:33;;;;;;;4.53;1.87;;;;;;;;;;5050254;28;20432;-63
2022/03/04 13:49:02;;;;;;;3.23;0.90;;;;;;;;;;5048873;28;20442;-64
2022/03/04 13:51:28;;;;;;;22.03;7.97;;;;;;;;;;5050382;28;20482;-63
2022/03/04 13:53:56;;;;;;;8.27;2.50;;;;;;;;;;5050204;28;20198;-63
2022/03/04 13:56:36;;;;;;;2.57;1.30;;;;;;;;;;5050271;28;20207;-63
2022/03/04 13:59:03;;;;;;;19.30;8.30;;;;;;;;;;5049538;28;20229;-63
2022/03/04 14:01:32;;;;;;;13.60;6.17;;;;;;;;;;5048712;28;20210;-64
2022/03/04 14:04:07;;;;;;;28.33;9.20;;;;;;;;;;5039408;28;20258;-66
2022/03/04 14:06:33;;;;;;;11.30;3.60;;;;;;;;;;5047238;28;20443;-64
2022/03/04 14:09:00;;;;;;;4.00;1.60;;;;;;;;;;5028462;28;20430;-64
2022/03/04 14:11:26;;;;;;;9.63;2.70;;;;;;;;;;5029650;28;20529;-64
2022/03/04 14:13:55;;;;;;;44.93;14.40;;;;;;;;;;5029953;28;20426;-64
2022/03/04 14:16:22;;;;;;;4.13;2.10;;;;;;;;;;5029282;28;20431;-64
2022/03/04 14:18:49;;;;;;;16.53;5.57;;;;;;;;;;5028611;28;20473;-64
2022/03/04 14:21:16;;;;;;;8.93;2.43;;;;;;;;;;5029878;28;20852;-64
2022/03/04 14:23:43;;;;;;;8.47;2.13;;;;;;;;;;5029458;28;20426;-63
2022/03/04 14:26:09;;;;;;;5.67;2.73;;;;;;;;;;5026778;28;20497;-64
2022/03/04 14:28:36;;;;;;;7.20;2.43;;;;;;;;;;5042038;28;20523;-64
2022/03/04 14:31:06;;;;;;;8.27;3.03;;;;;;;;;;5041985;28;20916;-64
2022/03/04 14:33:33;;;;;;;3.27;1.90;;;;;;;;;;5043202;28;20472;-64
2022/03/04 14:36:00;;;;;;;3.87;1.83;;;;;;;;;;5039889;28;21002;-64
2022/03/04 14:38:27;;;;;;;7.50;2.73;;;;;;;;;;5041779;28;21060;-64
2022/03/04 14:40:54;;;;;;;2.63;1.80;;;;;;;;;;5043599;28;20508;-64
2022/03/04 14:43:24;;;;;;;13.17;4.03;;;;;;;;;;5043139;28;20445;-64
2022/03/04 14:45:54;;;;;;;16.77;6.03;;;;;;;;;;5043564;28;20432;-64
2022/03/04 14:48:21;;;;;;;8.43;2.70;;;;;;;;;;5043204;28;20506;-65
2022/03/04 14:50:48;;;;;;;8.40;2.17;;;;;;;;;;5044073;28;20425;-65
2022/03/04 14:53:15;;;;;;;8.73;1.97;;;;;;;;;;5041665;28;20848;-64
2022/03/04 14:55:42;;;;;;;11.90;2.23;;;;;;;;;;5042109;28;20429;-64
2022/03/04 14:58:09;;;;;;;10.67;2.90;;;;;;;;;;5041982;28;20437;-65
2022/03/04 15:00:36;;;;;;;4.50;1.57;;;;;;;;;;5042284;28;20453;-64
2022/03/04 15:03:04;;;;;;;10.80;2.87;;;;;;;;;;5040301;28;20536;-66
2022/03/04 15:05:31;;;;;;;10.20;5.23;;;;;;;;;;5042746;28;20888;-66
2022/03/04 15:07:58;;;;;;;5.60;2.50;;;;;;;;;;5040354;28;20437;-67
2022/03/04 15:10:32;;;;;;;27.37;11.07;;;;;;;;;;5042475;28;20448;-66
2022/03/04 15:12:59;;;;;;;5.50;1.43;;;;;;;;;;5042727;28;20441;-65
2022/03/04 15:15:26;;;;;;;2.73;2.03;;;;;;;;;;5041048;28;20218;-65
2022/03/04 15:17:54;;;;;;;4.37;2.33;;;;;;;;;;5040838;28;20491;-67
2022/03/04 15:20:23;;;;;;;18.73;7.30;;;;;;;;;;5043655;28;20496;-67
2022/03/04 15:22:49;;;;;;;4.97;3.30;;;;;;;;;;5042194;28;20425;-67